sensor_id;sensor_type;location;lat;lon;timestamp;P1;durP1;ratioP1;P2;durP2;ratioP2
54430;SDS011;40342;52.998;5.862;2022-09-17T00:00:39;17.50;;;3.10;;
54430;SDS011;40342;52.998;5.862;2022-09-17T00:03:05;14.13;;;3.05;;
54430;SDS011;40342;52.998;5.862;2022-09-17T00:05:32;16.38;;;3.25;;
54430;SDS011;40342;52.998;5.862;2022-09-17T00:08:01;15.80;;;3.03;;
54430;SDS011;40342;52.998;5.862;2022-09-17T00:10:27;9.88;;;2.75;;
54430;SDS011;40342;52.998;5.862;2022-09-17T00:12:53;14.10;;;3.28;;
54430;SDS011;40342;52.998;5.862;2022-09-17T00:15:19;12.77;;;3.22;;
54430;SDS011;40342;52.998;5.862;2022-09-17T00:17:45;18.88;;;3.47;;
54430;SDS011;40342;52.998;5.862;2022-09-17T00:20:11;10.30;;;2.85;;
54430;SDS011;40342;52.998;5.862;2022-09-17T00:22:37;16.58;;;3.22;;
54430;SDS011;40342;52.998;5.862;2022-09-17T00:25:03;18.23;;;3.42;;
54430;SDS011;40342;52.998;5.862;2022-09-17T00:27:30;13.68;;;3.10;;
54430;SDS011;40342;52.998;5.862;2022-09-17T00:29:56;16.60;;;4.00;;
54430;SDS011;40342;52.998;5.862;2022-09-17T00:32:22;16.70;;;4.15;;
54430;SDS011;40342;52.998;5.862;2022-09-17T00:34:51;17.02;;;3.60;;
54430;SDS011;40342;52.998;5.862;2022-09-17T00:37:17;14.45;;;3.50;;
54430;SDS011;40342;52.998;5.862;2022-09-17T00:39:43;10.98;;;3.03;;
54430;SDS011;40342;52.998;5.862;2022-09-17T00:42:12;14.32;;;3.13;;
54430;SDS011;40342;52.998;5.862;2022-09-17T00:47:20;15.48;;;3.30;;
54430;SDS011;40342;52.998;5.862;2022-09-17T00:49:54;16.90;;;4.00;;
54430;SDS011;40342;52.998;5.862;2022-09-17T00:52:29;16.98;;;3.58;;
54430;SDS011;40342;52.998;5.862;2022-09-17T00:55:02;12.13;;;2.78;;
54430;SDS011;40342;52.998;5.862;2022-09-17T00:57:39;13.90;;;3.65;;
54430;SDS011;40342;52.998;5.862;2022-09-17T01:00:06;9.68;;;2.28;;
54430;SDS011;40342;52.998;5.862;2022-09-17T01:02:33;10.30;;;2.28;;
54430;SDS011;40342;52.998;5.862;2022-09-17T01:04:59;10.85;;;2.30;;
54430;SDS011;40342;52.998;5.862;2022-09-17T01:09:59;9.75;;;2.60;;
54430;SDS011;40342;52.998;5.862;2022-09-17T01:16:00;8.02;;;2.10;;
54430;SDS011;40342;52.998;5.862;2022-09-17T01:21:42;12.13;;;2.78;;
54430;SDS011;40342;52.998;5.862;2022-09-17T01:24:37;13.40;;;2.25;;
54430;SDS011;40342;52.998;5.862;2022-09-17T01:32:45;11.20;;;2.60;;
54430;SDS011;40342;52.998;5.862;2022-09-17T01:35:33;9.95;;;2.40;;
54430;SDS011;40342;52.998;5.862;2022-09-17T01:40:51;12.88;;;2.58;;
54430;SDS011;40342;52.998;5.862;2022-09-17T01:43:49;10.13;;;2.65;;
54430;SDS011;40342;52.998;5.862;2022-09-17T01:46:20;14.15;;;2.75;;
54430;SDS011;40342;52.998;5.862;2022-09-17T01:48:52;14.32;;;2.28;;
54430;SDS011;40342;52.998;5.862;2022-09-17T01:51:23;12.45;;;1.90;;
54430;SDS011;40342;52.998;5.862;2022-09-17T01:56:34;12.05;;;2.40;;
54430;SDS011;40342;52.998;5.862;2022-09-17T02:01:42;13.15;;;2.65;;
54430;SDS011;40342;52.998;5.862;2022-09-17T02:04:15;12.63;;;2.30;;
54430;SDS011;40342;52.998;5.862;2022-09-17T02:06:45;14.30;;;2.17;;
54430;SDS011;40342;52.998;5.862;2022-09-17T02:09:16;7.90;;;2.10;;
54430;SDS011;40342;52.998;5.862;2022-09-17T02:11:48;11.85;;;1.92;;
54430;SDS011;40342;52.998;5.862;2022-09-17T02:14:24;12.50;;;2.00;;
54430;SDS011;40342;52.998;5.862;2022-09-17T02:17:05;10.88;;;1.85;;
54430;SDS011;40342;52.998;5.862;2022-09-17T02:19:44;10.75;;;1.90;;
54430;SDS011;40342;52.998;5.862;2022-09-17T02:22:20;13.65;;;2.58;;
54430;SDS011;40342;52.998;5.862;2022-09-17T02:24:57;7.70;;;1.77;;
54430;SDS011;40342;52.998;5.862;2022-09-17T02:30:02;9.75;;;2.55;;
54430;SDS011;40342;52.998;5.862;2022-09-17T02:32:28;13.35;;;2.30;;
54430;SDS011;40342;52.998;5.862;2022-09-17T02:34:54;12.68;;;3.45;;
54430;SDS011;40342;52.998;5.862;2022-09-17T02:37:20;10.30;;;2.90;;
54430;SDS011;40342;52.998;5.862;2022-09-17T02:39:46;15.70;;;2.83;;
54430;SDS011;40342;52.998;5.862;2022-09-17T02:42:22;14.10;;;2.58;;
54430;SDS011;40342;52.998;5.862;2022-09-17T02:45:25;10.02;;;2.30;;
54430;SDS011;40342;52.998;5.862;2022-09-17T02:48:04;10.15;;;2.15;;
54430;SDS011;40342;52.998;5.862;2022-09-17T02:51:08;11.30;;;2.67;;
54430;SDS011;40342;52.998;5.862;2022-09-17T02:53:57;9.45;;;2.42;;
54430;SDS011;40342;52.998;5.862;2022-09-17T02:56:48;17.02;;;2.92;;
54430;SDS011;40342;52.998;5.862;2022-09-17T03:02:07;8.93;;;2.25;;
54430;SDS011;40342;52.998;5.862;2022-09-17T03:04:39;9.73;;;2.40;;
54430;SDS011;40342;52.998;5.862;2022-09-17T03:07:08;11.68;;;2.28;;
54430;SDS011;40342;52.998;5.862;2022-09-17T03:09:36;14.27;;;2.85;;
54430;SDS011;40342;52.998;5.862;2022-09-17T03:12:02;16.95;;;3.25;;
54430;SDS011;40342;52.998;5.862;2022-09-17T03:14:28;17.70;;;3.83;;
54430;SDS011;40342;52.998;5.862;2022-09-17T03:16:54;13.50;;;3.35;;
54430;SDS011;40342;52.998;5.862;2022-09-17T03:19:19;15.57;;;3.30;;
54430;SDS011;40342;52.998;5.862;2022-09-17T03:21:45;14.07;;;2.95;;
54430;SDS011;40342;52.998;5.862;2022-09-17T03:24:10;13.80;;;2.92;;
54430;SDS011;40342;52.998;5.862;2022-09-17T03:26:36;13.50;;;2.70;;
54430;SDS011;40342;52.998;5.862;2022-09-17T03:29:03;9.68;;;2.53;;
54430;SDS011;40342;52.998;5.862;2022-09-17T03:31:29;11.57;;;2.63;;
54430;SDS011;40342;52.998;5.862;2022-09-17T03:33:54;15.48;;;3.15;;
54430;SDS011;40342;52.998;5.862;2022-09-17T03:36:20;13.07;;;3.05;;
54430;SDS011;40342;52.998;5.862;2022-09-17T03:38:46;11.52;;;2.17;;
54430;SDS011;40342;52.998;5.862;2022-09-17T03:41:11;13.45;;;2.65;;
54430;SDS011;40342;52.998;5.862;2022-09-17T03:43:37;12.02;;;2.88;;
54430;SDS011;40342;52.998;5.862;2022-09-17T03:46:03;12.60;;;2.75;;
54430;SDS011;40342;52.998;5.862;2022-09-17T03:48:29;9.25;;;2.35;;
54430;SDS011;40342;52.998;5.862;2022-09-17T03:50:56;17.92;;;3.40;;
54430;SDS011;40342;52.998;5.862;2022-09-17T03:53:22;12.60;;;2.58;;
54430;SDS011;40342;52.998;5.862;2022-09-17T03:55:48;11.25;;;2.42;;
54430;SDS011;40342;52.998;5.862;2022-09-17T03:58:13;16.10;;;2.22;;
54430;SDS011;40342;52.998;5.862;2022-09-17T04:00:39;9.90;;;2.78;;
54430;SDS011;40342;52.998;5.862;2022-09-17T04:03:05;12.52;;;3.03;;
54430;SDS011;40342;52.998;5.862;2022-09-17T04:05:31;12.60;;;2.95;;
54430;SDS011;40342;52.998;5.862;2022-09-17T04:07:57;19.52;;;3.03;;
54430;SDS011;40342;52.998;5.862;2022-09-17T04:10:23;17.30;;;3.47;;
54430;SDS011;40342;52.998;5.862;2022-09-17T04:12:49;14.05;;;2.67;;
54430;SDS011;40342;52.998;5.862;2022-09-17T04:15:14;16.48;;;3.20;;
54430;SDS011;40342;52.998;5.862;2022-09-17T04:17:40;12.40;;;2.25;;
54430;SDS011;40342;52.998;5.862;2022-09-17T04:20:05;12.35;;;2.15;;
54430;SDS011;40342;52.998;5.862;2022-09-17T04:22:31;13.98;;;3.05;;
54430;SDS011;40342;52.998;5.862;2022-09-17T04:24:57;12.93;;;2.53;;
54430;SDS011;40342;52.998;5.862;2022-09-17T04:27:23;9.65;;;2.35;;
54430;SDS011;40342;52.998;5.862;2022-09-17T04:29:49;12.90;;;2.38;;
54430;SDS011;40342;52.998;5.862;2022-09-17T04:32:15;9.95;;;2.50;;
54430;SDS011;40342;52.998;5.862;2022-09-17T04:34:40;12.98;;;2.50;;
54430;SDS011;40342;52.998;5.862;2022-09-17T04:37:06;12.90;;;2.72;;
54430;SDS011;40342;52.998;5.862;2022-09-17T04:39:31;14.05;;;2.40;;
54430;SDS011;40342;52.998;5.862;2022-09-17T04:41:57;12.40;;;2.75;;
54430;SDS011;40342;52.998;5.862;2022-09-17T04:44:23;11.07;;;2.40;;
54430;SDS011;40342;52.998;5.862;2022-09-17T04:46:48;12.00;;;2.60;;
54430;SDS011;40342;52.998;5.862;2022-09-17T04:49:14;13.80;;;2.13;;
54430;SDS011;40342;52.998;5.862;2022-09-17T04:51:39;9.82;;;2.25;;
54430;SDS011;40342;52.998;5.862;2022-09-17T04:54:05;8.75;;;2.15;;
54430;SDS011;40342;52.998;5.862;2022-09-17T04:56:30;8.57;;;2.17;;
54430;SDS011;40342;52.998;5.862;2022-09-17T04:58:56;12.65;;;2.10;;
54430;SDS011;40342;52.998;5.862;2022-09-17T05:01:22;14.55;;;2.70;;
54430;SDS011;40342;52.998;5.862;2022-09-17T05:03:47;14.35;;;2.58;;
54430;SDS011;40342;52.998;5.862;2022-09-17T05:06:14;9.88;;;1.85;;
54430;SDS011;40342;52.998;5.862;2022-09-17T05:08:39;13.40;;;2.63;;
54430;SDS011;40342;52.998;5.862;2022-09-17T05:11:05;12.93;;;2.10;;
54430;SDS011;40342;52.998;5.862;2022-09-17T05:13:30;16.85;;;2.70;;
54430;SDS011;40342;52.998;5.862;2022-09-17T05:15:56;16.25;;;2.72;;
54430;SDS011;40342;52.998;5.862;2022-09-17T05:18:22;12.38;;;2.60;;
54430;SDS011;40342;52.998;5.862;2022-09-17T05:20:48;14.35;;;2.63;;
54430;SDS011;40342;52.998;5.862;2022-09-17T05:23:13;14.15;;;2.80;;
54430;SDS011;40342;52.998;5.862;2022-09-17T05:25:39;11.05;;;2.00;;
54430;SDS011;40342;52.998;5.862;2022-09-17T05:28:05;15.45;;;2.92;;
54430;SDS011;40342;52.998;5.862;2022-09-17T05:30:30;15.63;;;3.00;;
54430;SDS011;40342;52.998;5.862;2022-09-17T05:33:03;13.23;;;2.35;;
54430;SDS011;40342;52.998;5.862;2022-09-17T05:35:31;11.60;;;2.60;;
54430;SDS011;40342;52.998;5.862;2022-09-17T05:37:58;14.38;;;2.80;;
54430;SDS011;40342;52.998;5.862;2022-09-17T05:40:25;9.45;;;2.13;;
54430;SDS011;40342;52.998;5.862;2022-09-17T05:42:51;11.65;;;2.25;;
54430;SDS011;40342;52.998;5.862;2022-09-17T05:45:22;11.23;;;2.00;;
54430;SDS011;40342;52.998;5.862;2022-09-17T05:47:48;11.02;;;1.65;;
54430;SDS011;40342;52.998;5.862;2022-09-17T05:50:19;10.57;;;1.98;;
54430;SDS011;40342;52.998;5.862;2022-09-17T05:52:44;6.40;;;1.63;;
54430;SDS011;40342;52.998;5.862;2022-09-17T05:55:10;9.50;;;1.73;;
54430;SDS011;40342;52.998;5.862;2022-09-17T05:57:35;3.67;;;1.25;;
54430;SDS011;40342;52.998;5.862;2022-09-17T06:00:01;6.72;;;1.85;;
54430;SDS011;40342;52.998;5.862;2022-09-17T06:02:28;6.10;;;1.00;;
54430;SDS011;40342;52.998;5.862;2022-09-17T06:04:53;4.90;;;1.08;;
54430;SDS011;40342;52.998;5.862;2022-09-17T06:07:19;4.90;;;1.23;;
54430;SDS011;40342;52.998;5.862;2022-09-17T06:09:44;7.18;;;1.10;;
54430;SDS011;40342;52.998;5.862;2022-09-17T06:12:10;2.15;;;0.82;;
54430;SDS011;40342;52.998;5.862;2022-09-17T06:14:36;4.15;;;1.10;;
54430;SDS011;40342;52.998;5.862;2022-09-17T06:17:01;4.18;;;1.20;;
54430;SDS011;40342;52.998;5.862;2022-09-17T06:19:27;2.58;;;0.68;;
54430;SDS011;40342;52.998;5.862;2022-09-17T06:21:53;3.58;;;0.82;;
54430;SDS011;40342;52.998;5.862;2022-09-17T06:24:18;4.93;;;0.82;;
54430;SDS011;40342;52.998;5.862;2022-09-17T06:26:44;5.30;;;0.90;;
54430;SDS011;40342;52.998;5.862;2022-09-17T06:29:09;7.00;;;1.20;;
54430;SDS011;40342;52.998;5.862;2022-09-17T06:31:38;8.65;;;1.30;;
54430;SDS011;40342;52.998;5.862;2022-09-17T06:34:04;9.52;;;1.40;;
54430;SDS011;40342;52.998;5.862;2022-09-17T06:36:30;5.95;;;1.40;;
54430;SDS011;40342;52.998;5.862;2022-09-17T06:38:56;6.90;;;1.65;;
54430;SDS011;40342;52.998;5.862;2022-09-17T06:41:21;9.45;;;1.80;;
54430;SDS011;40342;52.998;5.862;2022-09-17T06:43:47;6.63;;;1.45;;
54430;SDS011;40342;52.998;5.862;2022-09-17T06:46:12;8.48;;;2.05;;
54430;SDS011;40342;52.998;5.862;2022-09-17T06:48:38;10.30;;;1.83;;
54430;SDS011;40342;52.998;5.862;2022-09-17T06:51:04;5.97;;;1.60;;
54430;SDS011;40342;52.998;5.862;2022-09-17T06:53:32;7.85;;;1.50;;
54430;SDS011;40342;52.998;5.862;2022-09-17T06:56:00;8.02;;;1.90;;
54430;SDS011;40342;52.998;5.862;2022-09-17T06:58:27;12.00;;;1.90;;
54430;SDS011;40342;52.998;5.862;2022-09-17T07:00:57;8.13;;;1.85;;
54430;SDS011;40342;52.998;5.862;2022-09-17T07:03:24;7.65;;;1.27;;
54430;SDS011;40342;52.998;5.862;2022-09-17T07:05:49;7.78;;;1.52;;
54430;SDS011;40342;52.998;5.862;2022-09-17T07:08:15;8.95;;;1.10;;
54430;SDS011;40342;52.998;5.862;2022-09-17T07:10:40;7.57;;;1.40;;
54430;SDS011;40342;52.998;5.862;2022-09-17T07:13:06;5.72;;;1.45;;
54430;SDS011;40342;52.998;5.862;2022-09-17T07:15:31;4.35;;;0.95;;
54430;SDS011;40342;52.998;5.862;2022-09-17T07:17:57;3.17;;;0.85;;
54430;SDS011;40342;52.998;5.862;2022-09-17T07:20:22;6.00;;;1.17;;
54430;SDS011;40342;52.998;5.862;2022-09-17T07:22:55;4.68;;;0.95;;
54430;SDS011;40342;52.998;5.862;2022-09-17T07:27:48;4.68;;;1.13;;
54430;SDS011;40342;52.998;5.862;2022-09-17T07:30:14;4.80;;;1.00;;
54430;SDS011;40342;52.998;5.862;2022-09-17T07:32:39;6.57;;;1.08;;
54430;SDS011;40342;52.998;5.862;2022-09-17T07:35:06;4.43;;;0.77;;
54430;SDS011;40342;52.998;5.862;2022-09-17T07:37:32;2.97;;;0.90;;
54430;SDS011;40342;52.998;5.862;2022-09-17T07:39:57;4.85;;;0.82;;
54430;SDS011;40342;52.998;5.862;2022-09-17T07:42:23;5.88;;;1.23;;
54430;SDS011;40342;52.998;5.862;2022-09-17T07:44:49;5.43;;;1.10;;
54430;SDS011;40342;52.998;5.862;2022-09-17T07:47:14;4.88;;;1.08;;
54430;SDS011;40342;52.998;5.862;2022-09-17T07:49:40;4.30;;;1.10;;
54430;SDS011;40342;52.998;5.862;2022-09-17T07:52:05;8.95;;;1.13;;
54430;SDS011;40342;52.998;5.862;2022-09-17T07:54:34;7.70;;;1.70;;
54430;SDS011;40342;52.998;5.862;2022-09-17T07:57:03;7.50;;;2.03;;
54430;SDS011;40342;52.998;5.862;2022-09-17T07:59:29;8.63;;;1.70;;
54430;SDS011;40342;52.998;5.862;2022-09-17T08:01:54;13.55;;;2.22;;
54430;SDS011;40342;52.998;5.862;2022-09-17T08:04:20;6.82;;;1.52;;
54430;SDS011;40342;52.998;5.862;2022-09-17T08:06:46;3.38;;;0.95;;
54430;SDS011;40342;52.998;5.862;2022-09-17T08:09:15;3.45;;;0.93;;
54430;SDS011;40342;52.998;5.862;2022-09-17T08:11:42;4.82;;;1.60;;
54430;SDS011;40342;52.998;5.862;2022-09-17T08:14:09;4.10;;;1.00;;
54430;SDS011;40342;52.998;5.862;2022-09-17T08:16:36;3.75;;;1.25;;
54430;SDS011;40342;52.998;5.862;2022-09-17T08:19:02;6.35;;;1.27;;
54430;SDS011;40342;52.998;5.862;2022-09-17T08:21:27;4.30;;;1.17;;
54430;SDS011;40342;52.998;5.862;2022-09-17T08:23:53;6.60;;;1.42;;
54430;SDS011;40342;52.998;5.862;2022-09-17T08:26:19;8.20;;;1.80;;
54430;SDS011;40342;52.998;5.862;2022-09-17T08:28:53;8.30;;;1.88;;
54430;SDS011;40342;52.998;5.862;2022-09-17T08:31:20;8.57;;;1.77;;
54430;SDS011;40342;52.998;5.862;2022-09-17T08:33:48;9.23;;;1.70;;
54430;SDS011;40342;52.998;5.862;2022-09-17T08:36:15;8.50;;;1.50;;
54430;SDS011;40342;52.998;5.862;2022-09-17T08:38:42;6.97;;;1.45;;
54430;SDS011;40342;52.998;5.862;2022-09-17T08:43:35;4.68;;;1.20;;
54430;SDS011;40342;52.998;5.862;2022-09-17T08:46:09;7.40;;;1.58;;
54430;SDS011;40342;52.998;5.862;2022-09-17T08:48:46;10.27;;;2.13;;
54430;SDS011;40342;52.998;5.862;2022-09-17T08:59:43;10.85;;;2.25;;
54430;SDS011;40342;52.998;5.862;2022-09-17T09:05:21;12.73;;;2.42;;
54430;SDS011;40342;52.998;5.862;2022-09-17T09:08:04;11.48;;;2.30;;
54430;SDS011;40342;52.998;5.862;2022-09-17T09:10:38;14.30;;;2.45;;
54430;SDS011;40342;52.998;5.862;2022-09-17T09:13:18;11.82;;;2.20;;
54430;SDS011;40342;52.998;5.862;2022-09-17T09:15:50;11.48;;;1.73;;
54430;SDS011;40342;52.998;5.862;2022-09-17T09:23:19;11.95;;;2.38;;
54430;SDS011;40342;52.998;5.862;2022-09-17T09:25:52;11.50;;;2.25;;
54430;SDS011;40342;52.998;5.862;2022-09-17T09:28:33;4.85;;;1.20;;
54430;SDS011;40342;52.998;5.862;2022-09-17T09:31:17;9.20;;;1.88;;
54430;SDS011;40342;52.998;5.862;2022-09-17T09:36:12;7.13;;;1.33;;
54430;SDS011;40342;52.998;5.862;2022-09-17T09:38:41;6.93;;;1.55;;
54430;SDS011;40342;52.998;5.862;2022-09-17T09:44:06;9.93;;;1.90;;
54430;SDS011;40342;52.998;5.862;2022-09-17T09:57:46;8.05;;;1.92;;
54430;SDS011;40342;52.998;5.862;2022-09-17T10:05:56;5.97;;;1.48;;
54430;SDS011;40342;52.998;5.862;2022-09-17T10:08:31;3.63;;;1.02;;
54430;SDS011;40342;52.998;5.862;2022-09-17T10:10:59;3.88;;;1.40;;
54430;SDS011;40342;52.998;5.862;2022-09-17T10:13:25;8.15;;;1.30;;
54430;SDS011;40342;52.998;5.862;2022-09-17T10:15:53;4.75;;;1.08;;
54430;SDS011;40342;52.998;5.862;2022-09-17T10:18:20;3.95;;;1.00;;
54430;SDS011;40342;52.998;5.862;2022-09-17T10:20:57;2.72;;;0.85;;
54430;SDS011;40342;52.998;5.862;2022-09-17T10:23:25;2.47;;;0.82;;
54430;SDS011;40342;52.998;5.862;2022-09-17T10:25:53;6.15;;;1.55;;
54430;SDS011;40342;52.998;5.862;2022-09-17T10:28:23;7.80;;;1.60;;
54430;SDS011;40342;52.998;5.862;2022-09-17T10:31:02;5.28;;;1.10;;
54430;SDS011;40342;52.998;5.862;2022-09-17T10:33:32;3.50;;;0.90;;
54430;SDS011;40342;52.998;5.862;2022-09-17T10:38:33;4.55;;;0.90;;
54430;SDS011;40342;52.998;5.862;2022-09-17T10:41:14;5.07;;;1.20;;
54430;SDS011;40342;52.998;5.862;2022-09-17T10:43:46;4.03;;;1.10;;
54430;SDS011;40342;52.998;5.862;2022-09-17T10:46:14;3.97;;;1.42;;
54430;SDS011;40342;52.998;5.862;2022-09-17T10:48:55;4.18;;;1.30;;
54430;SDS011;40342;52.998;5.862;2022-09-17T10:51:32;9.73;;;2.08;;
54430;SDS011;40342;52.998;5.862;2022-09-17T10:54:04;8.43;;;1.33;;
54430;SDS011;40342;52.998;5.862;2022-09-17T10:56:45;3.53;;;0.93;;
54430;SDS011;40342;52.998;5.862;2022-09-17T10:59:35;4.40;;;1.20;;
54430;SDS011;40342;52.998;5.862;2022-09-17T11:02:58;2.95;;;0.60;;
54430;SDS011;40342;52.998;5.862;2022-09-17T11:05:33;3.78;;;0.98;;
54430;SDS011;40342;52.998;5.862;2022-09-17T11:10:52;5.82;;;1.50;;
54430;SDS011;40342;52.998;5.862;2022-09-17T11:16:40;2.45;;;0.80;;
54430;SDS011;40342;52.998;5.862;2022-09-17T11:24:57;7.85;;;1.30;;
54430;SDS011;40342;52.998;5.862;2022-09-17T11:30:28;13.30;;;2.90;;
54430;SDS011;40342;52.998;5.862;2022-09-17T11:35:52;12.23;;;2.20;;
54430;SDS011;40342;52.998;5.862;2022-09-17T11:38:26;10.13;;;2.42;;
54430;SDS011;40342;52.998;5.862;2022-09-17T11:41:03;12.20;;;2.60;;
54430;SDS011;40342;52.998;5.862;2022-09-17T11:46:47;13.80;;;2.33;;
54430;SDS011;40342;52.998;5.862;2022-09-17T11:49:24;13.13;;;2.47;;
54430;SDS011;40342;52.998;5.862;2022-09-17T11:51:56;9.05;;;2.40;;
54430;SDS011;40342;52.998;5.862;2022-09-17T11:54:30;12.13;;;2.35;;
54430;SDS011;40342;52.998;5.862;2022-09-17T11:57:05;10.63;;;2.40;;
54430;SDS011;40342;52.998;5.862;2022-09-17T11:59:34;9.95;;;2.78;;
54430;SDS011;40342;52.998;5.862;2022-09-17T12:02:13;13.25;;;3.10;;
54430;SDS011;40342;52.998;5.862;2022-09-17T12:07:35;13.68;;;2.60;;
54430;SDS011;40342;52.998;5.862;2022-09-17T12:10:14;8.15;;;2.50;;
54430;SDS011;40342;52.998;5.862;2022-09-17T12:12:54;15.02;;;2.88;;
54430;SDS011;40342;52.998;5.862;2022-09-17T12:15:33;9.10;;;2.80;;
54430;SDS011;40342;52.998;5.862;2022-09-17T12:20:45;14.73;;;2.95;;
54430;SDS011;40342;52.998;5.862;2022-09-17T12:23:21;13.23;;;3.85;;
54430;SDS011;40342;52.998;5.862;2022-09-17T12:26:14;14.68;;;3.40;;
54430;SDS011;40342;52.998;5.862;2022-09-17T12:28:52;15.43;;;3.40;;
54430;SDS011;40342;52.998;5.862;2022-09-17T12:34:15;11.63;;;2.40;;
54430;SDS011;40342;52.998;5.862;2022-09-17T12:36:56;9.98;;;2.78;;
54430;SDS011;40342;52.998;5.862;2022-09-17T12:42:33;14.32;;;2.92;;
54430;SDS011;40342;52.998;5.862;2022-09-17T12:45:22;12.32;;;3.00;;
54430;SDS011;40342;52.998;5.862;2022-09-17T12:55:59;14.02;;;2.55;;
54430;SDS011;40342;52.998;5.862;2022-09-17T13:04:15;8.88;;;2.25;;
54430;SDS011;40342;52.998;5.862;2022-09-17T13:16:06;8.02;;;1.88;;
54430;SDS011;40342;52.998;5.862;2022-09-17T13:18:41;8.10;;;1.40;;
54430;SDS011;40342;52.998;5.862;2022-09-17T13:21:51;4.95;;;1.40;;
54430;SDS011;40342;52.998;5.862;2022-09-17T13:24:16;10.35;;;1.70;;
54430;SDS011;40342;52.998;5.862;2022-09-17T13:26:43;5.45;;;1.65;;
54430;SDS011;40342;52.998;5.862;2022-09-17T13:29:10;7.85;;;1.52;;
54430;SDS011;40342;52.998;5.862;2022-09-17T13:34:03;3.47;;;1.50;;
54430;SDS011;40342;52.998;5.862;2022-09-17T13:36:54;4.93;;;1.45;;
54430;SDS011;40342;52.998;5.862;2022-09-17T13:42:07;6.95;;;1.70;;
54430;SDS011;40342;52.998;5.862;2022-09-17T13:44:46;2.55;;;1.20;;
54430;SDS011;40342;52.998;5.862;2022-09-17T13:47:17;6.68;;;0.90;;
54430;SDS011;40342;52.998;5.862;2022-09-17T13:50:08;4.45;;;0.95;;
54430;SDS011;40342;52.998;5.862;2022-09-17T13:52:35;6.18;;;1.10;;
54430;SDS011;40342;52.998;5.862;2022-09-17T13:55:04;6.38;;;1.23;;
54430;SDS011;40342;52.998;5.862;2022-09-17T13:57:31;4.95;;;1.35;;
54430;SDS011;40342;52.998;5.862;2022-09-17T14:00:29;3.08;;;1.00;;
54430;SDS011;40342;52.998;5.862;2022-09-17T14:33:05;5.82;;;1.40;;
54430;SDS011;40342;52.998;5.862;2022-09-17T14:35:39;6.40;;;1.73;;
54430;SDS011;40342;52.998;5.862;2022-09-17T14:38:50;11.77;;;2.50;;
54430;SDS011;40342;52.998;5.862;2022-09-17T14:46:08;9.88;;;1.58;;
54430;SDS011;40342;52.998;5.862;2022-09-17T14:48:37;9.80;;;2.45;;
54430;SDS011;40342;52.998;5.862;2022-09-17T14:53:47;7.13;;;2.03;;
54430;SDS011;40342;52.998;5.862;2022-09-17T14:56:30;7.40;;;1.70;;
54430;SDS011;40342;52.998;5.862;2022-09-17T14:59:18;7.18;;;1.83;;
54430;SDS011;40342;52.998;5.862;2022-09-17T15:07:46;10.40;;;2.40;;
54430;SDS011;40342;52.998;5.862;2022-09-17T15:10:21;12.82;;;2.50;;
54430;SDS011;40342;52.998;5.862;2022-09-17T15:12:47;10.95;;;2.50;;
54430;SDS011;40342;52.998;5.862;2022-09-17T15:15:16;11.18;;;2.20;;
54430;SDS011;40342;52.998;5.862;2022-09-17T15:17:47;12.95;;;2.47;;
54430;SDS011;40342;52.998;5.862;2022-09-17T15:20:16;12.55;;;2.13;;
54430;SDS011;40342;52.998;5.862;2022-09-17T15:22:52;7.75;;;2.28;;
54430;SDS011;40342;52.998;5.862;2022-09-17T15:25:28;11.77;;;2.75;;
54430;SDS011;40342;52.998;5.862;2022-09-17T15:27:55;7.70;;;2.47;;
54430;SDS011;40342;52.998;5.862;2022-09-17T15:30:24;6.28;;;2.00;;
54430;SDS011;40342;52.998;5.862;2022-09-17T15:32:54;9.85;;;1.80;;
54430;SDS011;40342;52.998;5.862;2022-09-17T15:37:57;12.35;;;2.40;;
54430;SDS011;40342;52.998;5.862;2022-09-17T15:40:29;5.70;;;1.85;;
54430;SDS011;40342;52.998;5.862;2022-09-17T15:45:45;6.43;;;1.88;;
54430;SDS011;40342;52.998;5.862;2022-09-17T15:48:53;7.47;;;2.15;;
54430;SDS011;40342;52.998;5.862;2022-09-17T15:51:03;9.10;;;2.40;;
54430;SDS011;40342;52.998;5.862;2022-09-17T15:53:32;8.95;;;2.25;;
54430;SDS011;40342;52.998;5.862;2022-09-17T15:56:13;9.68;;;2.25;;
54430;SDS011;40342;52.998;5.862;2022-09-17T16:08:49;12.00;;;2.25;;
54430;SDS011;40342;52.998;5.862;2022-09-17T16:11:17;7.63;;;1.63;;
54430;SDS011;40342;52.998;5.862;2022-09-17T16:13:44;7.72;;;1.85;;
54430;SDS011;40342;52.998;5.862;2022-09-17T16:16:18;9.52;;;2.00;;
54430;SDS011;40342;52.998;5.862;2022-09-17T16:18:57;4.93;;;1.52;;
54430;SDS011;40342;52.998;5.862;2022-09-17T16:21:22;11.02;;;1.83;;
54430;SDS011;40342;52.998;5.862;2022-09-17T16:23:49;7.43;;;1.75;;
54430;SDS011;40342;52.998;5.862;2022-09-17T16:26:16;9.00;;;1.83;;
54430;SDS011;40342;52.998;5.862;2022-09-17T16:28:44;11.98;;;2.63;;
54430;SDS011;40342;52.998;5.862;2022-09-17T16:31:13;10.35;;;2.00;;
54430;SDS011;40342;52.998;5.862;2022-09-17T16:33:39;7.03;;;1.90;;
54430;SDS011;40342;52.998;5.862;2022-09-17T16:36:05;10.25;;;1.95;;
54430;SDS011;40342;52.998;5.862;2022-09-17T16:38:30;13.57;;;2.10;;
54430;SDS011;40342;52.998;5.862;2022-09-17T16:40:56;8.35;;;2.10;;
54430;SDS011;40342;52.998;5.862;2022-09-17T16:43:21;10.77;;;2.28;;
54430;SDS011;40342;52.998;5.862;2022-09-17T16:46:00;13.40;;;2.60;;
54430;SDS011;40342;52.998;5.862;2022-09-17T16:48:30;6.78;;;1.90;;
54430;SDS011;40342;52.998;5.862;2022-09-17T16:50:57;12.35;;;1.90;;
54430;SDS011;40342;52.998;5.862;2022-09-17T16:53:22;6.35;;;2.15;;
54430;SDS011;40342;52.998;5.862;2022-09-17T16:55:49;7.13;;;2.03;;
54430;SDS011;40342;52.998;5.862;2022-09-17T16:58:14;9.95;;;2.40;;
54430;SDS011;40342;52.998;5.862;2022-09-17T17:00:43;6.72;;;1.58;;
54430;SDS011;40342;52.998;5.862;2022-09-17T17:03:12;7.00;;;1.75;;
54430;SDS011;40342;52.998;5.862;2022-09-17T17:05:38;9.38;;;2.00;;
54430;SDS011;40342;52.998;5.862;2022-09-17T17:08:05;5.40;;;1.70;;
54430;SDS011;40342;52.998;5.862;2022-09-17T17:10:31;8.00;;;1.70;;
54430;SDS011;40342;52.998;5.862;2022-09-17T17:12:57;4.25;;;1.20;;
54430;SDS011;40342;52.998;5.862;2022-09-17T17:15:23;10.55;;;2.35;;
54430;SDS011;40342;52.998;5.862;2022-09-17T17:17:48;9.55;;;2.10;;
54430;SDS011;40342;52.998;5.862;2022-09-17T17:20:14;11.82;;;2.50;;
54430;SDS011;40342;52.998;5.862;2022-09-17T17:22:40;8.80;;;1.77;;
54430;SDS011;40342;52.998;5.862;2022-09-17T17:25:11;6.25;;;1.48;;
54430;SDS011;40342;52.998;5.862;2022-09-17T17:27:38;7.60;;;1.55;;
54430;SDS011;40342;52.998;5.862;2022-09-17T17:30:05;5.68;;;1.95;;
54430;SDS011;40342;52.998;5.862;2022-09-17T17:32:32;9.18;;;1.55;;
54430;SDS011;40342;52.998;5.862;2022-09-17T17:34:59;7.13;;;1.58;;
54430;SDS011;40342;52.998;5.862;2022-09-17T17:37:25;8.80;;;1.90;;
54430;SDS011;40342;52.998;5.862;2022-09-17T17:39:51;7.45;;;1.65;;
54430;SDS011;40342;52.998;5.862;2022-09-17T17:42:18;9.38;;;1.92;;
54430;SDS011;40342;52.998;5.862;2022-09-17T17:44:44;7.05;;;1.60;;
54430;SDS011;40342;52.998;5.862;2022-09-17T17:47:09;6.07;;;1.13;;
54430;SDS011;40342;52.998;5.862;2022-09-17T17:49:35;11.48;;;1.63;;
54430;SDS011;40342;52.998;5.862;2022-09-17T17:52:01;10.55;;;2.15;;
54430;SDS011;40342;52.998;5.862;2022-09-17T17:54:26;6.72;;;1.73;;
54430;SDS011;40342;52.998;5.862;2022-09-17T17:56:53;7.50;;;1.75;;
54430;SDS011;40342;52.998;5.862;2022-09-17T17:59:19;7.55;;;1.75;;
54430;SDS011;40342;52.998;5.862;2022-09-17T18:01:45;5.15;;;1.42;;
54430;SDS011;40342;52.998;5.862;2022-09-17T18:04:10;6.75;;;1.52;;
54430;SDS011;40342;52.998;5.862;2022-09-17T18:06:36;5.38;;;1.27;;
54430;SDS011;40342;52.998;5.862;2022-09-17T18:09:02;6.35;;;1.65;;
54430;SDS011;40342;52.998;5.862;2022-09-17T18:11:28;3.35;;;1.17;;
54430;SDS011;40342;52.998;5.862;2022-09-17T18:13:56;8.10;;;1.90;;